Time;durP1;ratioP1;P1;durP2;ratioP2;P2;SDS_P1;SDS_P2;PMS_P1;PMS_P2;Temp;Humidity;BMP_temperature;BMP_pressure;BME280_temperature;BME280_humidity;BME280_pressure;Samples;Min_cycle;Max_cycle;Signal;HPM_P1;HPM_P2
2023/07/09 00:01:39;;;;;;;6.20;2.35;;;16.10;99.90;;;;;;4177047;28;20028;-61
2023/07/09 00:03:40;;;;;;;3.25;2.28;;;16.00;99.90;;;;;;4178034;28;20037;-61
2023/07/09 00:05:42;;;;;;;3.63;2.40;;;15.90;99.90;;;;;;4177663;28;20033;-60
2023/07/09 00:07:45;;;;;;;2.85;2.08;;;15.90;99.90;;;;;;4178528;28;20095;-61
2023/07/09 00:09:46;;;;;;;3.35;2.42;;;15.80;99.90;;;;;;4177602;28;20083;-62
2023/07/09 00:11:49;;;;;;;4.00;2.53;;;15.80;99.90;;;;;;4178547;28;20095;-61
2023/07/09 00:13:50;;;;;;;5.63;2.55;;;15.70;99.90;;;;;;4177314;28;20037;-63
2023/07/09 00:16:00;;;;;;;3.67;2.50;;;15.60;99.90;;;;;;4177780;28;20091;-62
2023/07/09 00:18:02;;;;;;;;;;;15.60;99.90;;;;;;4178041;28;20095;-62
2023/07/09 00:20:11;;;;;;;3.20;2.30;;;15.60;99.90;;;;;;4177877;28;19913;-62
2023/07/09 00:22:18;;;;;;;8.38;2.53;;;15.50;99.90;;;;;;4178147;28;20788;-62
2023/07/09 00:24:19;;;;;;;6.35;2.50;;;15.40;99.90;;;;;;4177411;28;20098;-62
2023/07/09 00:26:23;;;;;;;4.68;2.58;;;15.40;99.90;;;;;;4177304;28;20045;-62
2023/07/09 00:28:24;;;;;;;6.05;3.38;;;15.30;99.90;;;;;;4177442;28;20053;-62
2023/07/09 00:30:25;;;;;;;3.70;2.40;;;15.30;99.90;;;;;;4178116;28;20071;-62
2023/07/09 00:32:28;;;;;;;4.35;2.30;;;15.30;99.90;;;;;;4177062;28;20358;-62
2023/07/09 00:34:29;;;;;;;4.45;2.33;;;15.20;99.90;;;;;;4178194;28;20468;-61
2023/07/09 00:36:34;;;;;;;8.40;2.33;;;15.20;99.90;;;;;;4176865;28;20083;-61
2023/07/09 00:38:38;;;;;;;4.13;2.90;;;15.20;99.90;;;;;;4178683;28;20033;-62
2023/07/09 00:40:46;;;;;;;4.68;2.45;;;15.20;99.90;;;;;;4176849;28;20374;-61
2023/07/09 00:42:51;;;;;;;5.18;3.05;;;15.20;99.90;;;;;;4178335;28;20082;-63
2023/07/09 00:44:54;;;;;;;3.15;2.85;;;15.10;99.90;;;;;;4177163;28;20021;-61
2023/07/09 00:46:57;;;;;;;3.50;2.58;;;15.10;99.90;;;;;;4178224;28;20025;-62
2023/07/09 00:49:05;;;;;;;3.63;2.40;;;15.00;99.90;;;;;;4176878;28;20465;-61
2023/07/09 00:51:13;;;;;;;2.95;2.13;;;15.00;99.90;;;;;;4177724;28;20082;-61
2023/07/09 00:53:23;;;;;;;6.65;2.80;;;15.00;99.90;;;;;;4177246;28;20029;-61
2023/07/09 00:55:31;;;;;;;4.25;2.88;;;15.10;99.90;;;;;;4177535;28;20067;-62
2023/07/09 00:57:32;;;;;;;6.40;2.58;;;15.20;99.90;;;;;;4176952;28;20033;-61
2023/07/09 00:59:33;;;;;;;4.60;2.45;;;15.20;99.90;;;;;;4177061;28;20041;-61
2023/07/09 01:01:35;;;;;;;4.63;2.40;;;15.20;99.90;;;;;;4158716;28;20472;-62
2023/07/09 01:03:44;;;;;;;3.88;2.53;;;15.20;99.90;;;;;;4176983;28;20079;-63
2023/07/09 01:05:51;;;;;;;2.85;2.47;;;15.20;99.90;;;;;;4175033;28;20028;-62
2023/07/09 01:07:53;;;;;;;3.67;2.40;;;15.20;99.90;;;;;;4177062;28;20452;-62
2023/07/09 01:09:55;;;;;;;5.38;2.50;;;15.20;99.90;;;;;;4176737;28;20374;-61
2023/07/09 01:12:00;;;;;;;5.50;2.55;;;15.20;99.90;;;;;;4176995;28;20045;-65
2023/07/09 01:14:05;;;;;;;3.60;2.38;;;15.20;99.90;;;;;;4177223;28;20110;-61
2023/07/09 01:16:06;;;;;;;6.05;2.13;;;15.20;99.90;;;;;;4177250;28;20033;-62
2023/07/09 01:18:10;;;;;;;3.35;2.22;;;15.20;99.90;;;;;;4177012;28;20037;-61
2023/07/09 01:20:20;;;;;;;3.08;2.33;;;15.20;99.90;;;;;;4176841;28;20033;-62
2023/07/09 01:22:23;;;;;;;2.47;2.20;;;15.20;99.90;;;;;;4177500;28;20539;-62
2023/07/09 01:24:46;;;;;;;3.22;2.10;;;15.20;99.90;;;;;;4175612;28;20473;-60
2023/07/09 01:26:47;;;;;;;3.97;2.13;;;15.10;99.90;;;;;;4176601;28;20029;-62
2023/07/09 01:28:48;;;;;;;2.60;2.38;;;15.20;99.90;;;;;;4175668;28;20056;-63
2023/07/09 01:30:53;;;;;;;3.38;2.78;;;15.10;99.90;;;;;;4177258;28;20041;-61
2023/07/09 01:33:00;;;;;;;2.70;2.22;;;15.10;99.90;;;;;;4176187;28;20463;-60
2023/07/09 01:35:06;;;;;;;4.70;2.08;;;15.00;99.90;;;;;;4177187;28;20041;-62
2023/07/09 01:37:07;;;;;;;3.83;2.53;;;15.00;99.90;;;;;;4176630;28;20102;-62
2023/07/09 01:39:08;;;;;;;4.22;2.42;;;15.00;99.90;;;;;;4177671;28;20021;-62
2023/07/09 01:41:13;;;;;;;4.07;2.30;;;14.90;99.90;;;;;;4176034;28;20547;-62
2023/07/09 01:43:14;;;;;;;4.07;2.30;;;14.90;99.90;;;;;;4177161;28;20534;-60
2023/07/09 01:45:16;;;;;;;4.95;2.28;;;14.90;99.90;;;;;;4176065;28;20102;-61
2023/07/09 01:47:18;;;;;;;2.42;2.17;;;14.90;99.90;;;;;;4176639;28;20193;-61
2023/07/09 01:49:20;;;;;;;3.88;2.00;;;14.90;99.90;;;;;;4175786;28;20197;-60
2023/07/09 01:51:24;;;;;;;4.18;2.13;;;14.90;99.90;;;;;;4177700;28;20039;-62
2023/07/09 01:53:27;;;;;;;5.03;2.63;;;14.90;99.90;;;;;;4176569;28;20029;-61
2023/07/09 01:55:28;;;;;;;4.68;2.10;;;14.90;99.90;;;;;;4176617;28;20029;-65
2023/07/09 01:57:34;;;;;;;6.30;2.50;;;14.90;99.90;;;;;;4176270;28;20515;-61
2023/07/09 01:59:40;;;;;;;4.30;2.65;;;15.00;99.90;;;;;;4176610;28;20095;-60
2023/07/09 02:01:42;;;;;;;5.50;2.00;;;15.00;99.90;;;;;;4176175;28;20091;-63
2023/07/09 02:03:43;;;;;;;4.97;1.90;;;15.00;99.90;;;;;;4176782;28;20029;-67
2023/07/09 02:05:45;;;;;;;3.28;2.00;;;15.00;99.90;;;;;;4176735;28;20041;-61
2023/07/09 02:07:47;;;;;;;4.18;2.35;;;15.00;99.90;;;;;;4175406;28;20086;-62
2023/07/09 02:09:48;;;;;;;2.90;2.20;;;15.00;99.90;;;;;;4177159;28;20083;-62
2023/07/09 02:11:49;;;;;;;3.75;2.35;;;15.00;99.90;;;;;;4176265;28;20021;-62
2023/07/09 02:13:51;;;;;;;2.92;2.10;;;14.90;99.90;;;;;;4176335;28;20492;-65
2023/07/09 02:15:52;;;;;;;3.33;2.08;;;14.90;99.90;;;;;;4175575;28;20087;-61
2023/07/09 02:17:53;;;;;;;4.25;2.03;;;14.90;99.90;;;;;;4177056;28;20041;-62
2023/07/09 02:19:54;;;;;;;4.30;2.00;;;14.80;99.90;;;;;;4175883;28;20033;-61
2023/07/09 02:21:56;;;;;;;4.22;2.10;;;14.70;99.90;;;;;;4177851;28;20578;-61
2023/07/09 02:23:57;;;;;;;4.47;2.25;;;14.70;99.90;;;;;;4176078;28;20489;-61
2023/07/09 02:25:58;;;;;;;6.03;2.38;;;14.70;99.90;;;;;;4176538;28;20110;-61
2023/07/09 02:27:59;;;;;;;3.03;1.88;;;14.80;99.90;;;;;;4176371;28;20083;-62
2023/07/09 02:30:00;;;;;;;3.33;2.40;;;14.80;99.90;;;;;;4177061;28;20041;-63
2023/07/09 02:32:02;;;;;;;4.50;2.30;;;14.80;99.90;;;;;;4176401;28;20082;-62
2023/07/09 02:34:03;;;;;;;3.00;2.38;;;14.80;99.90;;;;;;4176679;28;20037;-62
2023/07/09 02:36:05;;;;;;;4.43;2.28;;;14.80;99.90;;;;;;4177298;28;20040;-62
2023/07/09 02:38:06;;;;;;;5.85;2.30;;;14.70;99.90;;;;;;4178640;28;20032;-63
2023/07/09 02:40:08;;;;;;;3.53;2.13;;;14.70;99.90;;;;;;4179631;28;20385;-63
2023/07/09 02:42:11;;;;;;;3.13;2.15;;;14.80;99.90;;;;;;4178807;28;20082;-65
2023/07/09 02:44:13;;;;;;;2.80;2.10;;;14.80;99.90;;;;;;4179831;28;21619;-71
2023/07/09 02:46:14;;;;;;;2.80;2.22;;;14.80;99.90;;;;;;4178212;28;20041;-61
2023/07/09 02:48:15;;;;;;;4.70;2.65;;;14.80;99.90;;;;;;4179885;28;20059;-61
2023/07/09 02:50:16;;;;;;;4.40;2.13;;;14.80;99.90;;;;;;4178857;28;20105;-61
2023/07/09 02:52:17;;;;;;;3.03;2.20;;;14.90;99.90;;;;;;4179647;28;20045;-61
2023/07/09 02:54:18;;;;;;;4.20;2.42;;;14.90;99.90;;;;;;4178963;28;20059;-62
2023/07/09 02:56:20;;;;;;;4.43;2.10;;;15.00;99.90;;;;;;4178749;28;20045;-62
2023/07/09 02:58:21;;;;;;;3.05;2.13;;;15.10;99.90;;;;;;4178648;28;20462;-66
2023/07/09 03:00:22;;;;;;;4.35;2.08;;;15.10;99.90;;;;;;4179232;28;20045;-62
2023/07/09 03:02:24;;;;;;;4.72;2.30;;;15.20;99.90;;;;;;4178819;28;20047;-62
2023/07/09 03:04:25;;;;;;;2.20;2.00;;;15.30;99.90;;;;;;4179493;28;20067;-63
2023/07/09 03:06:26;;;;;;;2.67;2.03;;;15.50;99.90;;;;;;4179201;28;20067;-63
2023/07/09 03:08:27;;;;;;;4.50;2.40;;;15.70;99.90;;;;;;4178841;28;20075;-65
2023/07/09 03:10:29;;;;;;;3.75;2.17;;;15.90;99.90;;;;;;4178939;28;20473;-62
2023/07/09 03:12:30;;;;;;;5.03;2.20;;;16.10;99.90;;;;;;4178661;28;20079;-61
2023/07/09 03:14:32;;;;;;;5.38;2.47;;;16.30;99.90;;;;;;4179100;28;20477;-63
2023/07/09 03:16:34;;;;;;;3.95;2.20;;;16.40;99.90;;;;;;4177693;28;20110;-64
2023/07/09 03:18:35;;;;;;;3.05;1.88;;;16.60;99.90;;;;;;4179308;28;20029;-62
2023/07/09 03:20:38;;;;;;;6.45;1.70;;;16.80;99.90;;;;;;4178451;28;20087;-61
2023/07/09 03:22:39;;;;;;;6.15;2.53;;;17.00;99.90;;;;;;4179931;28;20025;-62
2023/07/09 03:24:40;;;;;;;4.70;1.83;;;17.20;99.90;;;;;;4178285;28;20094;-61
2023/07/09 03:26:41;;;;;;;5.47;2.40;;;17.50;99.90;;;;;;4179473;28;20025;-62
2023/07/09 03:28:43;;;;;;;4.50;2.20;;;17.60;99.90;;;;;;4177724;28;20071;-65
2023/07/09 03:30:46;;;;;;;4.57;2.13;;;17.80;99.90;;;;;;4178650;28;20538;-63
2023/07/09 03:32:48;;;;;;;5.68;2.55;;;18.20;99.90;;;;;;4177375;28;20037;-63
2023/07/09 03:34:49;;;;;;;3.47;1.85;;;18.50;99.90;;;;;;4178898;28;20033;-61
2023/07/09 03:36:50;;;;;;;4.85;2.13;;;18.50;99.90;;;;;;4178783;28;20091;-62
2023/07/09 03:38:52;;;;;;;3.65;2.15;;;18.70;99.90;;;;;;4178621;28;20075;-62
2023/07/09 03:40:54;;;;;;;4.13;2.00;;;18.90;99.90;;;;;;4178803;28;20024;-63
2023/07/09 03:42:55;;;;;;;5.53;1.75;;;19.20;99.90;;;;;;4177437;28;20133;-62
2023/07/09 03:44:56;;;;;;;7.88;1.95;;;19.50;99.90;;;;;;4178950;28;20102;-62
2023/07/09 03:46:57;;;;;;;3.22;1.45;;;19.80;99.90;;;;;;4175844;28;20111;-62
2023/07/09 03:48:59;;;;;;;2.72;1.70;;;19.80;99.90;;;;;;4178722;28;20075;-63
2023/07/09 03:51:00;;;;;;;2.08;1.75;;;19.90;99.90;;;;;;4177872;28;20033;-62
2023/07/09 03:53:02;;;;;;;2.95;1.50;;;20.50;99.90;;;;;;4178509;28;20090;-66
2023/07/09 03:55:04;;;;;;;2.25;1.58;;;20.70;99.90;;;;;;4177798;28;20170;-67
2023/07/09 03:57:06;;;;;;;2.40;1.95;;;20.70;99.90;;;;;;4178728;28;20025;-63
2023/07/09 03:59:07;;;;;;;2.53;1.80;;;20.90;99.90;;;;;;4177735;28;20017;-62
2023/07/09 04:01:08;;;;;;;4.90;1.77;;;21.10;99.90;;;;;;4178827;28;20163;-66
2023/07/09 04:03:10;;;;;;;3.42;1.85;;;21.10;99.90;;;;;;4177095;28;20087;-63
2023/07/09 04:05:11;;;;;;;5.75;1.67;;;21.10;99.90;;;;;;4160120;28;20033;-62
2023/07/09 04:07:13;;;;;;;2.42;1.77;;;21.50;99.90;;;;;;4177928;28;20083;-62
2023/07/09 04:09:14;;;;;;;4.07;1.70;;;21.30;99.90;;;;;;4177958;28;20477;-62
2023/07/09 04:11:15;;;;;;;3.22;1.45;;;21.30;99.90;;;;;;4178204;28;20020;-61
2023/07/09 04:13:16;;;;;;;3.05;1.50;;;21.40;99.90;;;;;;4177632;28;20083;-63
2023/07/09 04:15:17;;;;;;;2.10;1.67;;;21.80;99.90;;;;;;4178586;28;20075;-63
2023/07/09 04:17:19;;;;;;;1.73;1.63;;;22.20;99.90;;;;;;4177387;28;20091;-64
2023/07/09 04:19:20;;;;;;;3.13;1.77;;;22.70;99.90;;;;;;4178807;28;20036;-63
2023/07/09 04:21:21;;;;;;;3.75;1.33;;;23.40;99.90;;;;;;4177565;28;20044;-62
2023/07/09 04:23:22;;;;;;;5.35;1.48;;;24.10;99.90;;;;;;4178652;28;20037;-63
2023/07/09 04:25:24;;;;;;;3.58;1.85;;;24.20;99.90;;;;;;4177583;28;20086;-64
2023/07/09 04:27:27;;;;;;;2.47;1.60;;;24.10;99.90;;;;;;4178353;28;20078;-62
2023/07/09 04:29:35;;;;;;;3.42;1.73;;;24.00;99.90;;;;;;4177357;28;20033;-62
2023/07/09 04:31:37;;;;;;;1.80;1.05;;;23.90;99.90;;;;;;4178683;28;20048;-64
2023/07/09 04:33:38;;;;;;;2.15;1.67;;;24.20;99.60;;;;;;4176286;28;20045;-63
2023/07/09 04:35:39;;;;;;;1.48;1.13;;;24.10;99.30;;;;;;4178536;28;20025;-63
2023/07/09 04:37:42;;;;;;;3.63;1.60;;;24.00;98.80;;;;;;4177807;28;20090;-63
2023/07/09 04:39:44;;;;;;;2.53;1.73;;;23.80;99.00;;;;;;4177855;28;21103;-64
2023/07/09 04:41:45;;;;;;;3.03;1.48;;;23.70;98.80;;;;;;4177573;28;20783;-63
2023/07/09 04:43:46;;;;;;;3.05;1.80;;;23.70;98.90;;;;;;4177634;28;20425;-64
2023/07/09 04:45:48;;;;;;;2.72;1.48;;;23.90;98.60;;;;;;4177009;28;20487;-64
2023/07/09 04:47:49;;;;;;;3.38;1.42;;;24.30;98.40;;;;;;4175516;28;20109;-63
2023/07/09 04:49:50;;;;;;;4.78;1.52;;;24.90;97.80;;;;;;4178000;28;20048;-61
2023/07/09 04:51:51;;;;;;;2.35;1.35;;;25.30;97.30;;;;;;4176584;28;20021;-63
2023/07/09 04:53:52;;;;;;;3.95;1.52;;;25.60;96.90;;;;;;4159923;28;20534;-62
2023/07/09 04:55:54;;;;;;;1.75;1.40;;;26.10;96.30;;;;;;4176476;28;20041;-62
2023/07/09 04:57:56;;;;;;;2.03;1.40;;;27.00;95.50;;;;;;4177591;28;20550;-61
2023/07/09 04:59:57;;;;;;;1.77;1.40;;;27.30;94.70;;;;;;4176412;28;20024;-62
2023/07/09 05:01:58;;;;;;;8.27;5.32;;;27.70;94.00;;;;;;4175816;28;20044;-61
2023/07/09 05:04:00;;;;;;;8.70;2.00;;;27.80;93.50;;;;;;4176277;28;20028;-64
2023/07/09 05:06:01;;;;;;;3.13;1.95;;;28.10;93.00;;;;;;4177524;28;20044;-64
2023/07/09 05:08:02;;;;;;;4.10;1.30;;;28.20;92.60;;;;;;4177099;28;20427;-62
2023/07/09 05:10:05;;;;;;;1.88;1.52;;;27.90;92.10;;;;;;4177532;28;20163;-69
2023/07/09 05:12:06;;;;;;;1.63;1.10;;;27.10;92.30;;;;;;4176966;28;20024;-64
2023/07/09 05:14:07;;;;;;;3.97;1.42;;;26.80;92.60;;;;;;4176488;28;20032;-61
2023/07/09 05:16:09;;;;;;;1.52;1.05;;;27.40;92.30;;;;;;4177316;28;20037;-61
2023/07/09 05:18:11;;;;;;;4.95;1.70;;;28.10;91.80;;;;;;4176423;28;20514;-63
2023/07/09 05:20:14;;;;;;;2.58;1.10;;;28.60;91.50;;;;;;4176390;28;20098;-62
2023/07/09 05:22:15;;;;;;;1.38;1.05;;;28.80;90.80;;;;;;4176414;28;20535;-62
2023/07/09 05:24:16;;;;;;;2.33;1.38;;;28.60;90.40;;;;;;4177376;28;20025;-61
2023/07/09 05:26:17;;;;;;;4.63;1.38;;;28.80;90.20;;;;;;4175531;28;20040;-65
2023/07/09 05:28:18;;;;;;;3.00;1.38;;;29.30;89.80;;;;;;4176637;28;20171;-61
2023/07/09 05:30:20;;;;;;;2.78;1.67;;;29.50;88.90;;;;;;4176102;28;20040;-62
2023/07/09 05:32:21;;;;;;;2.20;1.15;;;29.60;87.80;;;;;;4177175;28;20086;-65
2023/07/09 05:34:22;;;;;;;8.70;1.80;;;30.00;87.10;;;;;;4176059;28;20040;-61
2023/07/09 05:36:23;;;;;;;1.73;1.23;;;30.30;86.20;;;;;;4177980;28;20470;-62
2023/07/09 05:38:24;;;;;;;1.80;0.90;;;30.20;85.50;;;;;;4176274;28;20465;-67
2023/07/09 05:40:25;;;;;;;2.25;1.00;;;30.40;85.10;;;;;;4176611;28;20051;-63
2023/07/09 05:42:26;;;;;;;3.05;1.02;;;30.60;84.10;;;;;;4175315;28;20469;-62
2023/07/09 05:44:28;;;;;;;1.33;1.10;;;30.90;83.40;;;;;;4175718;28;20037;-63
2023/07/09 05:46:35;;;;;;;4.32;1.20;;;30.70;82.70;;;;;;4175710;28;20091;-63
2023/07/09 05:48:37;;;;;;;1.13;0.98;;;29.70;82.00;;;;;;4175398;28;20045;-62
2023/07/09 05:50:38;;;;;;;5.35;1.38;;;29.20;83.60;;;;;;4175703;28;20049;-70
2023/07/09 05:52:39;;;;;;;2.10;0.93;;;29.00;83.90;;;;;;4175763;28;20029;-62
2023/07/09 05:54:40;;;;;;;1.48;1.27;;;29.10;83.80;;;;;;4176157;28;20546;-62
2023/07/09 05:56:41;;;;;;;1.25;0.90;;;28.40;84.40;;;;;;4175244;28;20029;-62
2023/07/09 05:58:42;;;;;;;2.15;1.30;;;28.60;84.60;;;;;;4177139;28;20029;-62
2023/07/09 06:00:43;;;;;;;8.57;1.55;;;28.50;84.40;;;;;;4175370;28;20114;-63
2023/07/09 06:02:44;;;;;;;4.35;1.33;;;28.20;84.70;;;;;;4176089;28;20408;-61
2023/07/09 06:04:48;;;;;;;1.33;1.08;;;28.80;84.50;;;;;;4175254;28;20473;-62
2023/07/09 06:06:50;;;;;;;1.88;1.13;;;28.70;84.20;;;;;;4158571;28;20403;-63
2023/07/09 06:08:51;;;;;;;2.13;1.13;;;28.90;83.90;;;;;;4175797;28;20544;-65
2023/07/09 06:11:00;;;;;;;5.10;1.30;;;29.00;83.60;;;;;;4178059;28;20041;-63
2023/07/09 06:13:01;;;;;;;1.50;1.30;;;29.00;82.90;;;;;;4177995;28;20036;-62
2023/07/09 06:15:02;;;;;;;1.70;1.13;;;29.30;83.40;;;;;;4162063;28;20091;-68
2023/07/09 06:17:04;;;;;;;2.75;1.17;;;29.80;82.80;;;;;;4178992;28;20033;-62
2023/07/09 06:19:05;;;;;;;4.45;1.42;;;30.70;81.80;;;;;;4178527;28;20067;-62
2023/07/09 06:21:09;;;;;;;2.45;1.13;;;30.70;81.10;;;;;;4179052;28;20033;-61
2023/07/09 06:23:10;;;;;;;3.00;1.58;;;30.50;80.90;;;;;;4178725;28;20432;-63
2023/07/09 06:25:12;;;;;;;2.50;1.20;;;30.60;80.80;;;;;;4178939;28;20079;-62
2023/07/09 06:27:13;;;;;;;2.97;1.63;;;30.40;80.80;;;;;;4178044;28;20290;-63
2023/07/09 06:29:14;;;;;;;5.10;1.58;;;30.70;80.80;;;;;;4179489;28;20083;-62
2023/07/09 06:31:15;;;;;;;5.90;1.20;;;31.00;80.30;;;;;;4178324;28;20547;-63
2023/07/09 06:33:18;;;;;;;1.88;1.30;;;31.20;80.10;;;;;;4179499;28;20037;-68
2023/07/09 06:35:19;;;;;;;1.10;1.00;;;31.30;79.60;;;;;;4177947;28;20033;-65
2023/07/09 06:37:20;;;;;;;2.63;1.23;;;31.70;79.10;;;;;;4180274;28;20066;-67
2023/07/09 06:39:21;;;;;;;2.63;1.40;;;32.20;78.50;;;;;;4160625;28;20030;-63
2023/07/09 06:41:23;;;;;;;2.13;1.25;;;32.50;77.70;;;;;;4179343;28;20397;-63
2023/07/09 06:43:24;;;;;;;3.40;1.15;;;32.40;77.40;;;;;;4178071;28;20029;-64
2023/07/09 06:45:26;;;;;;;1.40;1.10;;;32.40;77.40;;;;;;4179871;28;20025;-61
2023/07/09 06:47:27;;;;;;;1.25;1.00;;;32.30;77.40;;;;;;4177920;28;20037;-63
2023/07/09 06:49:28;;;;;;;2.53;1.30;;;32.40;77.20;;;;;;4178023;28;20079;-63
2023/07/09 06:51:29;;;;;;;1.70;1.20;;;32.20;77.00;;;;;;4178369;28;20110;-61
2023/07/09 06:53:30;;;;;;;3.53;0.85;;;31.70;77.40;;;;;;4177552;28;20044;-65
2023/07/09 06:55:31;;;;;;;1.75;1.15;;;31.60;78.00;;;;;;4178654;28;20495;-62
2023/07/09 06:57:33;;;;;;;2.60;1.60;;;32.10;77.50;;;;;;4178125;28;20432;-62
2023/07/09 06:59:34;;;;;;;1.33;1.00;;;32.10;76.90;;;;;;4179045;28;20025;-63
2023/07/09 07:01:35;;;;;;;1.80;1.15;;;31.90;76.80;;;;;;4178074;28;20041;-63
2023/07/09 07:03:36;;;;;;;3.08;1.27;;;31.40;77.20;;;;;;4179097;28;20033;-63
2023/07/09 07:05:37;;;;;;;1.85;1.10;;;31.10;77.10;;;;;;4178476;28;20033;-64
2023/07/09 07:07:38;;;;;;;4.65;1.23;;;31.20;77.80;;;;;;4180070;28;20059;-66
2023/07/09 07:09:39;;;;;;;3.17;1.40;;;31.50;77.20;;;;;;4178305;28;20078;-64
2023/07/09 07:11:41;;;;;;;3.65;1.17;;;31.30;76.70;;;;;;4179449;28;20037;-66
2023/07/09 07:13:43;;;;;;;2.40;1.15;;;31.20;77.00;;;;;;4159626;28;20041;-62
2023/07/09 07:15:49;;;;;;;6.03;1.35;;;31.50;77.10;;;;;;4179334;28;20534;-62
2023/07/09 07:17:50;;;;;;;3.83;1.20;;;31.80;76.40;;;;;;4178289;28;20025;-63
2023/07/09 07:19:51;;;;;;;1.42;1.23;;;31.40;76.30;;;;;;4167184;28;20037;-63
2023/07/09 07:21:53;;;;;;;4.53;1.20;;;31.20;77.10;;;;;;4143818;28;20116;-62
2023/07/09 07:23:54;;;;;;;1.52;1.40;;;30.90;77.00;;;;;;4162106;28;20075;-63
2023/07/09 07:25:55;;;;;;;1.88;1.20;;;30.70;77.20;;;;;;4171534;28;20045;-62
2023/07/09 07:27:56;;;;;;;3.20;1.30;;;30.90;77.10;;;;;;4169034;28;20025;-63
2023/07/09 07:29:57;;;;;;;1.83;1.10;;;30.90;76.80;;;;;;4178910;28;20044;-62
2023/07/09 07:32:00;;;;;;;2.28;1.17;;;30.70;76.90;;;;;;4178180;28;20037;-62
2023/07/09 07:34:01;;;;;;;3.45;1.20;;;30.70;77.30;;;;;;4177812;28;20045;-62
2023/07/09 07:36:06;;;;;;;1.58;1.30;;;30.20;77.10;;;;;;4177455;28;20477;-61
2023/07/09 07:38:07;;;;;;;1.60;1.30;;;30.10;77.00;;;;;;4179005;28;20036;-63
2023/07/09 07:40:10;;;;;;;1.20;1.10;;;29.90;77.00;;;;;;4177831;28;20051;-62
2023/07/09 07:42:11;;;;;;;27.02;11.93;;;29.30;77.30;;;;;;4179114;28;20485;-62
2023/07/09 07:44:12;;;;;;;8.13;3.38;;;29.40;78.20;;;;;;4172586;28;20037;-62
2023/07/09 07:46:13;;;;;;;2.47;1.63;;;29.60;78.30;;;;;;4172340;28;20091;-62
2023/07/09 07:48:14;;;;;;;14.85;2.38;;;29.80;78.10;;;;;;4177376;28;20503;-63
2023/07/09 07:50:16;;;;;;;5.88;2.33;;;29.60;77.20;;;;;;4177671;28;20615;-61
2023/07/09 07:52:17;;;;;;;4.18;1.98;;;29.20;77.10;;;;;;4176056;28;20028;-62
2023/07/09 07:54:18;;;;;;;32.72;4.93;;;29.10;76.20;;;;;;4177807;28;20091;-63
2023/07/09 07:56:19;;;;;;;46.28;7.53;;;28.80;76.70;;;;;;4177925;28;20420;-63
2023/07/09 07:58:20;;;;;;;6.93;2.38;;;28.80;77.00;;;;;;4177959;28;20071;-62
2023/07/09 08:00:21;;;;;;;4.20;1.83;;;28.80;77.20;;;;;;4178353;28;20456;-61
2023/07/09 08:02:24;;;;;;;3.22;1.10;;;29.00;77.40;;;;;;4176825;28;20044;-62
2023/07/09 08:04:25;;;;;;;2.28;1.83;;;29.10;77.30;;;;;;4177487;28;20033;-62
2023/07/09 08:06:27;;;;;;;3.97;1.50;;;29.10;77.50;;;;;;4176804;28;20033;-60
2023/07/09 08:08:28;;;;;;;5.30;1.75;;;29.10;77.30;;;;;;4177946;28;20067;-63
2023/07/09 08:10:29;;;;;;;3.13;1.50;;;29.20;77.70;;;;;;4177326;28;20114;-62
2023/07/09 08:12:30;;;;;;;1.48;1.38;;;29.40;77.50;;;;;;4177128;28;20095;-64
2023/07/09 08:14:31;;;;;;;4.10;1.33;;;29.40;77.80;;;;;;4175478;28;20053;-62
2023/07/09 08:16:32;;;;;;;6.35;1.35;;;29.50;77.20;;;;;;4178332;28;20048;-63
2023/07/09 08:18:34;;;;;;;3.05;1.73;;;29.50;76.90;;;;;;4177078;28;20098;-63
2023/07/09 08:20:35;;;;;;;2.70;1.50;;;29.50;76.70;;;;;;4177937;28;20033;-64
2023/07/09 08:22:36;;;;;;;1.67;1.58;;;29.60;76.90;;;;;;4177238;28;20017;-62
2023/07/09 08:24:37;;;;;;;1.67;1.20;;;29.60;77.00;;;;;;4177204;28;20025;-61
2023/07/09 08:26:39;;;;;;;2.78;1.85;;;29.50;76.70;;;;;;4176898;28;20033;-61
2023/07/09 08:28:40;;;;;;;1.67;1.20;;;29.50;76.70;;;;;;4177274;28;20435;-61
2023/07/09 08:30:41;;;;;;;1.95;1.70;;;29.40;76.30;;;;;;4175087;28;20503;-62
2023/07/09 08:32:42;;;;;;;2.88;1.50;;;29.20;75.90;;;;;;4159977;28;20045;-60
2023/07/09 08:34:43;;;;;;;2.25;1.55;;;29.00;75.90;;;;;;4170032;28;20459;-62
2023/07/09 08:36:44;;;;;;;21.20;4.03;;;28.70;75.70;;;;;;4177054;28;20047;-62
2023/07/09 08:38:45;;;;;;;5.80;1.55;;;28.70;76.00;;;;;;4178414;28;20032;-60
2023/07/09 08:41:19;;;;;;;1.90;1.65;;;28.50;76.00;;;;;;4177028;28;20013;-62
2023/07/09 08:43:49;;;;;;;1.67;1.23;;;28.60;75.70;;;;;;4173413;28;20040;-61
2023/07/09 08:46:34;;;;;;;4.78;1.58;;;28.80;74.60;;;;;;4156282;28;21035;-61
2023/07/09 08:48:40;;;;;;;14.05;5.82;;;28.80;74.60;;;;;;4174944;28;20032;-62
2023/07/09 08:50:54;;;;;;;1.45;1.30;;;28.80;74.90;;;;;;4177201;28;20106;-63
2023/07/09 08:52:57;;;;;;;1.88;1.77;;;28.60;74.50;;;;;;4175970;28;20017;-62
2023/07/09 08:55:03;;;;;;;1.92;1.35;;;28.60;75.40;;;;;;4177153;28;20029;-62
2023/07/09 08:57:20;;;;;;;1.35;1.20;;;28.40;74.80;;;;;;4175785;28;20569;-62
2023/07/09 08:59:22;;;;;;;1.20;1.00;;;28.40;74.80;;;;;;4173199;28;20029;-60
2023/07/09 09:01:28;;;;;;;2.35;1.35;;;28.50;74.90;;;;;;4176440;28;20094;-64
2023/07/09 09:03:38;;;;;;;2.97;1.50;;;28.30;74.60;;;;;;4175119;28;20362;-62
2023/07/09 09:05:41;;;;;;;;;;;28.20;74.70;;;;;;4177104;28;20071;-64
2023/07/09 09:07:44;;;;;;;5.07;1.45;;;28.20;74.60;;;;;;4176354;28;19913;-62
2023/07/09 09:09:57;;;;;;;36.22;6.45;;;28.30;74.80;;;;;;4176430;28;20086;-62
2023/07/09 09:12:15;;;;;;;22.48;4.70;;;27.90;73.50;;;;;;4176858;28;20155;-73
2023/07/09 09:14:35;;;;;;;2.97;1.30;;;27.90;74.90;;;;;;4176521;28;20574;-68
2023/07/09 09:16:42;;;;;;;3.38;1.35;;;28.20;74.30;;;;;;4177315;28;20055;-62
2023/07/09 09:18:45;;;;;;;1.63;1.30;;;28.40;74.40;;;;;;4158689;28;20394;-62
2023/07/09 09:21:04;;;;;;;2.13;1.27;;;28.60;74.20;;;;;;4176289;28;20033;-63
2023/07/09 09:23:08;;;;;;;2.10;1.35;;;28.60;73.30;;;;;;4176407;28;20376;-62
2023/07/09 09:25:15;;;;;;;1.50;1.40;;;28.50;73.60;;;;;;4177156;28;20083;-64
2023/07/09 09:27:16;;;;;;;4.07;1.25;;;28.60;73.90;;;;;;4176679;28;20029;-63
2023/07/09 09:29:17;;;;;;;6.40;2.03;;;28.30;74.10;;;;;;4176927;28;20029;-63
2023/07/09 09:31:19;;;;;;;6.53;2.65;;;28.30;74.70;;;;;;4176888;28;20042;-64
2023/07/09 09:33:21;;;;;;;1.20;0.85;;;28.20;74.60;;;;;;4175680;28;20440;-63
2023/07/09 09:35:38;;;;;;;1.58;1.48;;;28.20;75.20;;;;;;4176939;28;20041;-65
2023/07/09 09:37:39;;;;;;;5.03;1.83;;;28.30;73.60;;;;;;4176500;28;20033;-62
2023/07/09 09:39:40;;;;;;;3.85;1.60;;;28.40;74.30;;;;;;4177138;28;20762;-63
2023/07/09 09:41:44;;;;;;;2.88;1.80;;;28.40;74.60;;;;;;4169545;28;20032;-60
2023/07/09 09:43:47;;;;;;;2.92;1.30;;;28.10;74.60;;;;;;4160430;28;20482;-65
2023/07/09 09:45:49;;;;;;;10.48;3.05;;;28.10;74.00;;;;;;4160907;28;20539;-60
2023/07/09 09:47:50;;;;;;;3.80;1.90;;;27.60;74.90;;;;;;4146361;28;20069;-61
2023/07/09 09:49:53;;;;;;;2.42;1.55;;;27.40;76.00;;;;;;4162841;28;20072;-63
2023/07/09 09:51:56;;;;;;;4.72;1.92;;;27.50;76.40;;;;;;4164080;28;20041;-58
2023/07/09 09:54:01;;;;;;;3.60;1.73;;;27.60;76.30;;;;;;4163196;28;20029;-61
2023/07/09 09:56:05;;;;;;;1.63;1.52;;;27.70;76.20;;;;;;4178251;28;20049;-61
2023/07/09 09:58:17;;;;;;;1.40;1.30;;;28.00;76.70;;;;;;4162443;28;20037;-65
2023/07/09 10:00:22;;;;;;;14.63;3.25;;;28.20;75.20;;;;;;4164099;28;20486;-58
2023/07/09 10:02:25;;;;;;;39.83;6.78;;;28.20;75.50;;;;;;4162752;28;20417;-66
2023/07/09 10:04:27;;;;;;;71.03;9.20;;;28.00;74.90;;;;;;4164047;28;20033;-62
2023/07/09 10:06:34;;;;;;;32.13;5.35;;;27.70;75.40;;;;;;4162957;28;20041;-63
2023/07/09 10:08:56;;;;;;;13.40;2.83;;;27.80;76.30;;;;;;4178870;28;20037;-60
2023/07/09 10:11:24;;;;;;;2.83;1.75;;;28.00;76.30;;;;;;4162268;28;20045;-59
2023/07/09 10:13:34;;;;;;;3.92;1.33;;;28.00;75.40;;;;;;4163909;28;20025;-62
2023/07/09 10:15:35;;;;;;;;;;;28.00;75.90;;;;;;4162706;28;20037;-60
2023/07/09 10:17:59;;;;;;;18.15;3.38;;;27.90;75.80;;;;;;4163846;28;19928;-62
2023/07/09 10:20:19;;;;;;;16.13;3.92;;;27.70;75.70;;;;;;4162560;28;20454;-62
2023/07/09 10:22:54;;;;;;;12.27;2.35;;;27.60;75.70;;;;;;4163823;28;20033;-62
2023/07/09 10:25:17;;;;;;;7.50;3.30;;;27.70;75.10;;;;;;4162497;28;20560;-59
2023/07/09 10:27:30;;;;;;;1.23;1.20;;;27.90;75.10;;;;;;4162692;28;20482;-62
2023/07/09 10:29:56;;;;;;;5.40;1.98;;;28.10;74.70;;;;;;4162545;28;20025;-60
2023/07/09 10:32:12;;;;;;;20.70;2.85;;;28.10;74.60;;;;;;4162665;28;20175;-62
2023/07/09 10:34:32;;;;;;;78.43;13.02;;;28.00;74.80;;;;;;4161961;28;20049;-62
2023/07/09 10:36:37;;;;;;;65.40;10.98;;;27.60;73.70;;;;;;4161435;28;20104;-62
2023/07/09 10:38:54;;;;;;;6.05;2.45;;;27.10;73.10;;;;;;4162666;28;20037;-65
2023/07/09 10:40:58;;;;;;;84.50;12.50;;;26.80;73.60;;;;;;4160905;28;20095;-61
2023/07/09 10:43:02;;;;;;;36.17;6.25;;;26.70;75.90;;;;;;4161917;28;20029;-61